Aspro — T8A2546 — position and weather

sailwx.info

Track history (hours):
 
Tides and Currents Weather Stations Pressure Air Temp Water Temp Dewpoint Dewpoint Depression Visibility Wind Speed Wind Dir Waves Ship Positions

Aspro

Last reported at 2018-Jan-23 04:04 UTC. Time now 2018-Jan-24 12:06 UTC.
Position N 45°28' E 036°43'.

Length 114 m; draft 2.8 m.

Type: Cargo ship. MMSI: 511464000.

Date/timePositionNaut miles runAvg speedWind from/ knotsBaromVisibWave heightAir tempDewpointWater temp
2018-Jan-23 04:04N 45°28' E 036°43'1 6.5
2018-Jan-23 03:56N 45°27' E 036°42'3 6.3
2018-Jan-23 03:30N 45°24' E 036°41'3 6.0
2018-Jan-23 03:00N 45°22' E 036°40'3 6.4
2018-Jan-23 02:30N 45°20' E 036°36'3 7.1
2018-Jan-23 02:00N 45°19' E 036°32'3 6.1
2018-Jan-23 01:30N 45°16' E 036°29'2 5.0
2018-Jan-23 01:00N 45°14' E 036°30'1 0.1
2018-Jan-22 15:33N 45°13' E 036°30'0 0.1
2018-Jan-22 15:30N 45°13' E 036°30'0 0.0
2018-Jan-22 13:57N 45°13' E 036°30'0 0.0
2018-Jan-22 12:51N 45°13' E 036°30'0 0.0
2018-Jan-22 12:30N 45°13' E 036°30'0 0.0
2018-Jan-22 11:57N 45°13' E 036°30'0 0.0
2018-Jan-22 09:51N 45°13' E 036°30'0 0.0
2018-Jan-22 09:24N 45°13' E 036°30'0 0.0
2018-Jan-22 09:00N 45°13' E 036°30'0 0.1
2018-Jan-22 08:30N 45°13' E 036°30'0 0.0
2018-Jan-22 07:54N 45°13' E 036°30'0 0.0
2018-Jan-22 07:30N 45°13' E 036°30'0 0.1
2018-Jan-22 07:00N 45°13' E 036°30'0 0.0
2018-Jan-22 06:15N 45°13' E 036°30'0 0.0
2018-Jan-22 05:57N 45°13' E 036°30'0 0.0
2018-Jan-22 05:27N 45°13' E 036°30'0 0.0
2018-Jan-22 01:35N 45°13' E 036°30'0 0.0
2018-Jan-22 01:15N 45°13' E 036°30'0 0.1
2018-Jan-22 00:51N 45°13' E 036°30'0 0.1
2018-Jan-22 00:24N 45°13' E 036°30'0 0.0
2018-Jan-22 00:00N 45°13' E 036°30'0 0.0
2018-Jan-21 22:57N 45°13' E 036°30'0 0.1
2018-Jan-21 22:18N 45°13' E 036°30'1 2.9
2018-Jan-21 22:00N 45°12' E 036°31'  
Track history (hours):
 
Tides and Currents Weather Stations Pressure Air Temp Water Temp Dewpoint Dewpoint Depression Visibility Wind Speed Wind Dir Waves Ship Positions

Aspro

Last reported at 2018-Jan-23 04:04 UTC. Time now 2018-Jan-24 12:06 UTC.
Position N 45°28' E 036°43'.

Length 114 m; draft 2.8 m.

Type: Cargo ship. MMSI: 511464000.

Date/timePositionNaut miles runAvg speedWind from/ knotsBaromVisibWave heightAir tempDewpointWater temp
2018-Jan-23 04:04N 45°28' E 036°43'1 6.5
2018-Jan-23 03:56N 45°27' E 036°42'3 6.3
2018-Jan-23 03:30N 45°24' E 036°41'3 6.0
2018-Jan-23 03:00N 45°22' E 036°40'3 6.4
2018-Jan-23 02:30N 45°20' E 036°36'3 7.1
2018-Jan-23 02:00N 45°19' E 036°32'3 6.1
2018-Jan-23 01:30N 45°16' E 036°29'2 5.0
2018-Jan-23 01:00N 45°14' E 036°30'1 0.1
2018-Jan-22 15:33N 45°13' E 036°30'0 0.1
2018-Jan-22 15:30N 45°13' E 036°30'0 0.0
2018-Jan-22 13:57N 45°13' E 036°30'0 0.0
2018-Jan-22 12:51N 45°13' E 036°30'0 0.0
2018-Jan-22 12:30N 45°13' E 036°30'0 0.0
2018-Jan-22 11:57N 45°13' E 036°30'0 0.0
2018-Jan-22 09:51N 45°13' E 036°30'0 0.0
2018-Jan-22 09:24N 45°13' E 036°30'0 0.0
2018-Jan-22 09:00N 45°13' E 036°30'0 0.1
2018-Jan-22 08:30N 45°13' E 036°30'0 0.0
2018-Jan-22 07:54N 45°13' E 036°30'0 0.0
2018-Jan-22 07:30N 45°13' E 036°30'0 0.1
2018-Jan-22 07:00N 45°13' E 036°30'0 0.0
2018-Jan-22 06:15N 45°13' E 036°30'0 0.0
2018-Jan-22 05:57N 45°13' E 036°30'0 0.0
2018-Jan-22 05:27N 45°13' E 036°30'0 0.0
2018-Jan-22 01:35N 45°13' E 036°30'0 0.0
2018-Jan-22 01:15N 45°13' E 036°30'0 0.1
2018-Jan-22 00:51N 45°13' E 036°30'0 0.1
2018-Jan-22 00:24N 45°13' E 036°30'0 0.0
2018-Jan-22 00:00N 45°13' E 036°30'0 0.0
2018-Jan-21 22:57N 45°13' E 036°30'0 0.1
2018-Jan-21 22:18N 45°13' E 036°30'1 2.9
2018-Jan-21 22:00N 45°12' E 036°31'  

Dump ship's entire track history